sensor_id;sensor_type;location;lat;lon;timestamp;temperature;humidity
66610;DHT22;53468;48.276;14.416;2024-01-30T10:27:27;1.00;91.20
66610;DHT22;53468;48.276;14.416;2024-01-30T10:48:57;1.00;91.20
66610;DHT22;53468;48.276;14.416;2024-01-30T13:42:40;1.60;89.70
66610;DHT22;53468;48.276;14.416;2024-01-30T13:47:43;1.70;89.50
66610;DHT22;53468;48.276;14.416;2024-01-30T13:52:45;1.60;88.60
66610;DHT22;53468;48.276;14.416;2024-01-30T13:57:48;1.60;89.10
66610;DHT22;53468;48.276;14.416;2024-01-30T14:02:50;1.60;88.80
66610;DHT22;53468;48.276;14.416;2024-01-30T14:07:55;1.60;88.90
66610;DHT22;53468;48.276;14.416;2024-01-30T14:12:58;1.50;88.90
66610;DHT22;53468;48.276;14.416;2024-01-30T14:18:00;1.50;88.90
66610;DHT22;53468;48.276;14.416;2024-01-30T14:23:02;1.40;89.40
66610;DHT22;53468;48.276;14.416;2024-01-30T14:28:06;1.40;89.70
66610;DHT22;53468;48.276;14.416;2024-01-30T14:33:08;1.20;89.60
66610;DHT22;53468;48.276;14.416;2024-01-30T14:38:10;1.10;90.60
66610;DHT22;53468;48.276;14.416;2024-01-30T14:43:13;1.20;90.30
66610;DHT22;53468;48.276;14.416;2024-01-30T14:48:15;1.20;90.50
66610;DHT22;53468;48.276;14.416;2024-01-30T14:53:17;1.20;90.50
66610;DHT22;53468;48.276;14.416;2024-01-30T14:58:21;1.30;90.30
66610;DHT22;53468;48.276;14.416;2024-01-30T15:03:23;1.30;90.20
66610;DHT22;53468;48.276;14.416;2024-01-30T15:08:25;1.20;90.00
66610;DHT22;53468;48.276;14.416;2024-01-30T15:13:29;1.20;90.30
66610;DHT22;53468;48.276;14.416;2024-01-30T15:18:31;1.20;90.10
66610;DHT22;53468;48.276;14.416;2024-01-30T15:23:33;1.10;90.40
66610;DHT22;53468;48.276;14.416;2024-01-30T15:28:37;1.10;90.50
66610;DHT22;53468;48.276;14.416;2024-01-30T15:33:39;1.00;90.70
66610;DHT22;53468;48.276;14.416;2024-01-30T15:38:43;0.90;91.00
66610;DHT22;53468;48.276;14.416;2024-01-30T15:43:46;0.90;91.20
66610;DHT22;53468;48.276;14.416;2024-01-30T15:48:48;0.90;91.10
66610;DHT22;53468;48.276;14.416;2024-01-30T15:53:50;0.90;91.20
66610;DHT22;53468;48.276;14.416;2024-01-30T15:58:53;0.90;91.30
66610;DHT22;53468;48.276;14.416;2024-01-30T16:03:55;1.00;91.40
66610;DHT22;53468;48.276;14.416;2024-01-30T16:08:57;1.00;91.20
66610;DHT22;53468;48.276;14.416;2024-01-30T16:14:00;1.00;91.20
66610;DHT22;53468;48.276;14.416;2024-01-30T16:19:02;1.00;91.20
66610;DHT22;53468;48.276;14.416;2024-01-30T16:24:05;0.90;91.20
66610;DHT22;53468;48.276;14.416;2024-01-30T16:29:08;0.90;91.30
66610;DHT22;53468;48.276;14.416;2024-01-30T16:34:10;0.90;91.40
66610;DHT22;53468;48.276;14.416;2024-01-30T16:39:12;0.90;91.50
66610;DHT22;53468;48.276;14.416;2024-01-30T16:44:15;0.90;91.70
66610;DHT22;53468;48.276;14.416;2024-01-30T16:49:17;0.80;91.60
66610;DHT22;53468;48.276;14.416;2024-01-30T16:54:19;0.90;91.70
66610;DHT22;53468;48.276;14.416;2024-01-30T16:59:25;0.80;91.70
66610;DHT22;53468;48.276;14.416;2024-01-30T17:04:27;0.80;91.70
66610;DHT22;53468;48.276;14.416;2024-01-30T17:09:29;0.80;91.70
66610;DHT22;53468;48.276;14.416;2024-01-30T17:14:34;0.80;91.70
66610;DHT22;53468;48.276;14.416;2024-01-30T17:19:40;0.80;91.80
66610;DHT22;53468;48.276;14.416;2024-01-30T17:24:42;0.70;91.90
66610;DHT22;53468;48.276;14.416;2024-01-30T17:29:45;0.70;92.10
66610;DHT22;53468;48.276;14.416;2024-01-30T17:34:47;0.70;92.00
66610;DHT22;53468;48.276;14.416;2024-01-30T17:39:49;0.50;92.40
66610;DHT22;53468;48.276;14.416;2024-01-30T17:44:54;0.40;92.70
66610;DHT22;53468;48.276;14.416;2024-01-30T17:49:56;0.30;93.00
66610;DHT22;53468;48.276;14.416;2024-01-30T17:54:58;0.20;93.20
66610;DHT22;53468;48.276;14.416;2024-01-30T18:00:03;0.20;93.30
66610;DHT22;53468;48.276;14.416;2024-01-30T18:05:07;0.20;93.20
66610;DHT22;53468;48.276;14.416;2024-01-30T18:10:10;0.20;93.20
66610;DHT22;53468;48.276;14.416;2024-01-30T18:15:15;0.30;93.10
66610;DHT22;53468;48.276;14.416;2024-01-30T18:20:17;0.30;92.90
66610;DHT22;53468;48.276;14.416;2024-01-30T18:25:19;0.30;92.70
66610;DHT22;53468;48.276;14.416;2024-01-30T18:30:22;0.40;92.60
66610;DHT22;53468;48.276;14.416;2024-01-30T18:35:24;0.40;92.50
66610;DHT22;53468;48.276;14.416;2024-01-30T18:40:26;0.40;92.60
66610;DHT22;53468;48.276;14.416;2024-01-30T18:45:29;0.40;92.60
66610;DHT22;53468;48.276;14.416;2024-01-30T18:50:32;0.50;92.50
66610;DHT22;53468;48.276;14.416;2024-01-30T18:55:34;0.50;92.50
66610;DHT22;53468;48.276;14.416;2024-01-30T19:00:38;0.50;92.40
66610;DHT22;53468;48.276;14.416;2024-01-30T19:05:42;0.40;92.40
66610;DHT22;53468;48.276;14.416;2024-01-30T19:10:44;0.50;92.60
66610;DHT22;53468;48.276;14.416;2024-01-30T19:15:48;0.50;92.50
66610;DHT22;53468;48.276;14.416;2024-01-30T19:20:50;0.50;92.50
66610;DHT22;53468;48.276;14.416;2024-01-30T19:25:52;0.50;92.60
66610;DHT22;53468;48.276;14.416;2024-01-30T19:30:55;0.50;92.60
66610;DHT22;53468;48.276;14.416;2024-01-30T19:35:58;0.50;92.60
66610;DHT22;53468;48.276;14.416;2024-01-30T19:41:01;0.50;92.70
66610;DHT22;53468;48.276;14.416;2024-01-30T19:46:04;0.50;92.60
66610;DHT22;53468;48.276;14.416;2024-01-30T19:51:08;0.60;92.50
66610;DHT22;53468;48.276;14.416;2024-01-30T19:56:10;0.50;92.60
66610;DHT22;53468;48.276;14.416;2024-01-30T20:01:14;0.60;92.50
66610;DHT22;53468;48.276;14.416;2024-01-30T20:06:16;0.50;92.60
66610;DHT22;53468;48.276;14.416;2024-01-30T20:11:18;0.50;92.60
66610;DHT22;53468;48.276;14.416;2024-01-30T20:16:21;0.50;92.60
66610;DHT22;53468;48.276;14.416;2024-01-30T20:21:23;0.40;92.80
66610;DHT22;53468;48.276;14.416;2024-01-30T20:26:26;0.40;93.10
66610;DHT22;53468;48.276;14.416;2024-01-30T20:31:29;0.40;93.10
66610;DHT22;53468;48.276;14.416;2024-01-30T20:36:32;0.40;93.00
66610;DHT22;53468;48.276;14.416;2024-01-30T20:41:37;0.40;93.00
66610;DHT22;53468;48.276;14.416;2024-01-30T20:46:40;0.50;93.00
66610;DHT22;53468;48.276;14.416;2024-01-30T20:51:42;0.50;93.00
66610;DHT22;53468;48.276;14.416;2024-01-30T20:56:44;0.50;92.90
66610;DHT22;53468;48.276;14.416;2024-01-30T21:01:48;0.50;92.90
66610;DHT22;53468;48.276;14.416;2024-01-30T21:06:50;0.50;93.10
66610;DHT22;53468;48.276;14.416;2024-01-30T21:11:52;0.50;93.20
66610;DHT22;53468;48.276;14.416;2024-01-30T21:16:55;0.50;93.10
66610;DHT22;53468;48.276;14.416;2024-01-30T21:21:58;0.50;93.20
66610;DHT22;53468;48.276;14.416;2024-01-30T21:26:59;0.50;93.30
66610;DHT22;53468;48.276;14.416;2024-01-30T21:32:03;0.50;93.30
66610;DHT22;53468;48.276;14.416;2024-01-30T21:37:06;0.50;93.30
66610;DHT22;53468;48.276;14.416;2024-01-30T21:42:08;0.50;93.30
66610;DHT22;53468;48.276;14.416;2024-01-30T21:47:11;0.50;93.30
66610;DHT22;53468;48.276;14.416;2024-01-30T21:52:13;0.50;93.40
66610;DHT22;53468;48.276;14.416;2024-01-30T21:57:15;0.50;93.30
66610;DHT22;53468;48.276;14.416;2024-01-30T22:02:19;0.40;93.50
66610;DHT22;53468;48.276;14.416;2024-01-30T22:07:21;0.40;93.60
66610;DHT22;53468;48.276;14.416;2024-01-30T22:12:23;0.30;94.00
66610;DHT22;53468;48.276;14.416;2024-01-30T22:17:26;0.30;94.20
66610;DHT22;53468;48.276;14.416;2024-01-30T22:22:28;0.40;94.20
66610;DHT22;53468;48.276;14.416;2024-01-30T22:27:30;0.40;93.90
66610;DHT22;53468;48.276;14.416;2024-01-30T22:32:34;0.30;94.20
66610;DHT22;53468;48.276;14.416;2024-01-30T22:37:36;0.40;94.20
66610;DHT22;53468;48.276;14.416;2024-01-30T22:42:38;0.30;93.90
66610;DHT22;53468;48.276;14.416;2024-01-30T22:47:42;0.30;94.10
66610;DHT22;53468;48.276;14.416;2024-01-30T22:52:44;0.30;94.00
66610;DHT22;53468;48.276;14.416;2024-01-30T22:57:46;0.30;94.10
66610;DHT22;53468;48.276;14.416;2024-01-30T23:02:50;0.20;94.30
66610;DHT22;53468;48.276;14.416;2024-01-30T23:07:53;0.30;94.20
66610;DHT22;53468;48.276;14.416;2024-01-30T23:12:55;0.30;93.90
66610;DHT22;53468;48.276;14.416;2024-01-30T23:17:59;0.30;94.00
66610;DHT22;53468;48.276;14.416;2024-01-30T23:23:01;0.20;94.30
66610;DHT22;53468;48.276;14.416;2024-01-30T23:28:04;0.20;94.30
66610;DHT22;53468;48.276;14.416;2024-01-30T23:33:07;0.20;94.10
66610;DHT22;53468;48.276;14.416;2024-01-30T23:38:09;0.30;94.30
66610;DHT22;53468;48.276;14.416;2024-01-30T23:43:11;0.40;94.40
66610;DHT22;53468;48.276;14.416;2024-01-30T23:48:15;0.30;94.40
66610;DHT22;53468;48.276;14.416;2024-01-30T23:53:17;0.20;94.40
66610;DHT22;53468;48.276;14.416;2024-01-30T23:58:18;0.30;94.20
